sensor_id;sensor_type;location;lat;lon;timestamp;temperature;humidity
15131;DHT22;7666;50.920;4.628;2023-11-21T00:00:15;9.50;99.90
15131;DHT22;7666;50.920;4.628;2023-11-21T00:03:01;9.50;99.90
15131;DHT22;7666;50.920;4.628;2023-11-21T00:05:47;9.50;99.90
15131;DHT22;7666;50.920;4.628;2023-11-21T00:08:34;9.50;99.90
15131;DHT22;7666;50.920;4.628;2023-11-21T00:11:20;9.50;99.90
15131;DHT22;7666;50.920;4.628;2023-11-21T00:14:06;9.50;99.90
15131;DHT22;7666;50.920;4.628;2023-11-21T00:16:51;9.50;99.90
15131;DHT22;7666;50.920;4.628;2023-11-21T00:19:37;9.50;99.90
15131;DHT22;7666;50.920;4.628;2023-11-21T00:22:23;9.50;99.90
15131;DHT22;7666;50.920;4.628;2023-11-21T00:25:09;9.50;99.90
15131;DHT22;7666;50.920;4.628;2023-11-21T00:27:55;9.50;99.90
15131;DHT22;7666;50.920;4.628;2023-11-21T00:30:41;9.50;99.90
15131;DHT22;7666;50.920;4.628;2023-11-21T00:33:27;9.50;99.90
15131;DHT22;7666;50.920;4.628;2023-11-21T00:36:13;9.50;99.90
15131;DHT22;7666;50.920;4.628;2023-11-21T00:38:59;9.50;99.90
15131;DHT22;7666;50.920;4.628;2023-11-21T00:41:45;9.50;99.90
15131;DHT22;7666;50.920;4.628;2023-11-21T00:44:31;9.50;99.90
15131;DHT22;7666;50.920;4.628;2023-11-21T00:47:17;9.50;99.90
15131;DHT22;7666;50.920;4.628;2023-11-21T00:50:04;9.30;99.90
15131;DHT22;7666;50.920;4.628;2023-11-21T00:52:51;9.30;99.90
15131;DHT22;7666;50.920;4.628;2023-11-21T00:55:38;9.20;99.90
15131;DHT22;7666;50.920;4.628;2023-11-21T00:58:26;9.10;99.90
15131;DHT22;7666;50.920;4.628;2023-11-21T01:01:12;9.10;99.90
15131;DHT22;7666;50.920;4.628;2023-11-21T01:03:58;9.00;99.90
15131;DHT22;7666;50.920;4.628;2023-11-21T01:06:44;9.00;99.90
15131;DHT22;7666;50.920;4.628;2023-11-21T01:09:31;8.90;99.90
15131;DHT22;7666;50.920;4.628;2023-11-21T01:12:17;8.90;99.90
15131;DHT22;7666;50.920;4.628;2023-11-21T01:15:04;8.90;99.90
15131;DHT22;7666;50.920;4.628;2023-11-21T01:17:52;8.80;99.90
15131;DHT22;7666;50.920;4.628;2023-11-21T01:20:38;8.80;99.90
15131;DHT22;7666;50.920;4.628;2023-11-21T01:23:26;8.90;99.90
15131;DHT22;7666;50.920;4.628;2023-11-21T01:26:12;8.90;99.90
15131;DHT22;7666;50.920;4.628;2023-11-21T01:28:58;8.90;99.90
15131;DHT22;7666;50.920;4.628;2023-11-21T01:31:44;9.00;99.90
15131;DHT22;7666;50.920;4.628;2023-11-21T01:34:30;9.00;99.90
15131;DHT22;7666;50.920;4.628;2023-11-21T01:37:16;9.10;99.90
15131;DHT22;7666;50.920;4.628;2023-11-21T01:40:03;9.10;99.90
15131;DHT22;7666;50.920;4.628;2023-11-21T01:42:54;9.10;99.90
15131;DHT22;7666;50.920;4.628;2023-11-21T01:45:40;9.10;99.90
15131;DHT22;7666;50.920;4.628;2023-11-21T01:48:27;9.10;99.90
15131;DHT22;7666;50.920;4.628;2023-11-21T01:51:13;9.10;99.90
15131;DHT22;7666;50.920;4.628;2023-11-21T01:53:59;9.10;99.90
15131;DHT22;7666;50.920;4.628;2023-11-21T01:56:46;9.10;99.90
15131;DHT22;7666;50.920;4.628;2023-11-21T01:59:37;9.10;99.90
15131;DHT22;7666;50.920;4.628;2023-11-21T02:02:23;9.20;99.90
15131;DHT22;7666;50.920;4.628;2023-11-21T02:05:19;9.20;99.90
15131;DHT22;7666;50.920;4.628;2023-11-21T02:08:07;9.20;99.90
15131;DHT22;7666;50.920;4.628;2023-11-21T02:10:55;9.20;99.90
15131;DHT22;7666;50.920;4.628;2023-11-21T02:13:41;9.20;99.90
15131;DHT22;7666;50.920;4.628;2023-11-21T02:16:31;9.10;99.90
15131;DHT22;7666;50.920;4.628;2023-11-21T02:19:21;9.20;99.90
15131;DHT22;7666;50.920;4.628;2023-11-21T02:22:15;9.20;99.90
15131;DHT22;7666;50.920;4.628;2023-11-21T02:25:02;9.20;99.90
15131;DHT22;7666;50.920;4.628;2023-11-21T02:27:48;9.20;99.90
15131;DHT22;7666;50.920;4.628;2023-11-21T02:30:34;9.20;99.90
15131;DHT22;7666;50.920;4.628;2023-11-21T02:33:21;9.20;99.90
15131;DHT22;7666;50.920;4.628;2023-11-21T02:36:08;9.20;99.90
15131;DHT22;7666;50.920;4.628;2023-11-21T02:38:54;9.20;99.90
15131;DHT22;7666;50.920;4.628;2023-11-21T02:41:40;9.20;99.90
15131;DHT22;7666;50.920;4.628;2023-11-21T02:44:26;9.20;99.90
15131;DHT22;7666;50.920;4.628;2023-11-21T02:47:12;9.20;99.90
15131;DHT22;7666;50.920;4.628;2023-11-21T02:49:59;9.20;99.90
15131;DHT22;7666;50.920;4.628;2023-11-21T02:52:45;9.20;99.90
15131;DHT22;7666;50.920;4.628;2023-11-21T02:55:31;9.20;99.90
15131;DHT22;7666;50.920;4.628;2023-11-21T02:58:20;9.20;99.90
15131;DHT22;7666;50.920;4.628;2023-11-21T03:01:06;9.20;99.90
15131;DHT22;7666;50.920;4.628;2023-11-21T03:03:54;9.30;99.90
15131;DHT22;7666;50.920;4.628;2023-11-21T03:06:40;9.30;99.90
15131;DHT22;7666;50.920;4.628;2023-11-21T03:09:26;9.30;99.90
15131;DHT22;7666;50.920;4.628;2023-11-21T03:12:12;9.30;99.90
15131;DHT22;7666;50.920;4.628;2023-11-21T03:14:58;9.30;99.90
15131;DHT22;7666;50.920;4.628;2023-11-21T03:17:45;9.30;99.90
15131;DHT22;7666;50.920;4.628;2023-11-21T03:20:31;9.30;99.90
15131;DHT22;7666;50.920;4.628;2023-11-21T03:23:17;9.30;99.90
15131;DHT22;7666;50.920;4.628;2023-11-21T03:26:03;9.30;99.90
15131;DHT22;7666;50.920;4.628;2023-11-21T03:28:49;9.40;99.90
15131;DHT22;7666;50.920;4.628;2023-11-21T03:31:35;9.40;99.90
15131;DHT22;7666;50.920;4.628;2023-11-21T03:34:26;9.40;99.90
15131;DHT22;7666;50.920;4.628;2023-11-21T03:37:12;9.40;99.90
15131;DHT22;7666;50.920;4.628;2023-11-21T03:39:58;9.40;99.90
15131;DHT22;7666;50.920;4.628;2023-11-21T03:42:44;9.40;99.90
15131;DHT22;7666;50.920;4.628;2023-11-21T03:45:30;9.40;99.90
15131;DHT22;7666;50.920;4.628;2023-11-21T03:48:16;9.40;99.90
15131;DHT22;7666;50.920;4.628;2023-11-21T03:51:02;9.50;99.90
15131;DHT22;7666;50.920;4.628;2023-11-21T03:53:48;9.50;99.90
15131;DHT22;7666;50.920;4.628;2023-11-21T03:56:34;9.40;99.90
15131;DHT22;7666;50.920;4.628;2023-11-21T03:59:20;9.50;99.90
15131;DHT22;7666;50.920;4.628;2023-11-21T04:02:06;9.50;99.90
15131;DHT22;7666;50.920;4.628;2023-11-21T04:04:53;9.40;99.90
15131;DHT22;7666;50.920;4.628;2023-11-21T04:07:39;9.40;99.90
15131;DHT22;7666;50.920;4.628;2023-11-21T04:10:25;9.40;99.90
15131;DHT22;7666;50.920;4.628;2023-11-21T04:13:11;9.50;99.90
15131;DHT22;7666;50.920;4.628;2023-11-21T04:15:58;9.40;99.90
15131;DHT22;7666;50.920;4.628;2023-11-21T04:18:44;9.40;99.90
15131;DHT22;7666;50.920;4.628;2023-11-21T04:21:30;9.40;99.90
15131;DHT22;7666;50.920;4.628;2023-11-21T04:24:16;9.40;99.90
15131;DHT22;7666;50.920;4.628;2023-11-21T04:27:02;9.40;99.90
15131;DHT22;7666;50.920;4.628;2023-11-21T04:29:49;9.50;99.90
15131;DHT22;7666;50.920;4.628;2023-11-21T04:32:35;9.50;99.90
15131;DHT22;7666;50.920;4.628;2023-11-21T04:35:20;9.40;99.90
15131;DHT22;7666;50.920;4.628;2023-11-21T04:38:07;9.50;99.90
15131;DHT22;7666;50.920;4.628;2023-11-21T04:40:53;9.40;99.90
15131;DHT22;7666;50.920;4.628;2023-11-21T04:43:38;9.50;99.90
15131;DHT22;7666;50.920;4.628;2023-11-21T04:46:24;9.50;99.90
15131;DHT22;7666;50.920;4.628;2023-11-21T04:49:10;9.50;99.90
15131;DHT22;7666;50.920;4.628;2023-11-21T04:51:56;9.50;99.90
15131;DHT22;7666;50.920;4.628;2023-11-21T04:54:42;9.50;99.90
15131;DHT22;7666;50.920;4.628;2023-11-21T04:57:28;9.50;99.90
15131;DHT22;7666;50.920;4.628;2023-11-21T05:00:14;9.60;99.90
15131;DHT22;7666;50.920;4.628;2023-11-21T05:03:02;9.60;99.90
15131;DHT22;7666;50.920;4.628;2023-11-21T05:05:47;9.60;99.90
15131;DHT22;7666;50.920;4.628;2023-11-21T05:08:33;9.60;99.90
15131;DHT22;7666;50.920;4.628;2023-11-21T05:11:26;9.60;99.90
15131;DHT22;7666;50.920;4.628;2023-11-21T05:14:13;9.60;99.90
15131;DHT22;7666;50.920;4.628;2023-11-21T05:16:59;9.60;99.90
15131;DHT22;7666;50.920;4.628;2023-11-21T05:19:46;9.60;99.90
15131;DHT22;7666;50.920;4.628;2023-11-21T05:22:34;9.60;99.90
15131;DHT22;7666;50.920;4.628;2023-11-21T05:25:20;9.60;99.90
15131;DHT22;7666;50.920;4.628;2023-11-21T05:28:06;9.60;99.90
15131;DHT22;7666;50.920;4.628;2023-11-21T05:30:52;9.60;99.90
15131;DHT22;7666;50.920;4.628;2023-11-21T05:33:39;9.60;99.90
15131;DHT22;7666;50.920;4.628;2023-11-21T05:36:25;9.60;99.90
15131;DHT22;7666;50.920;4.628;2023-11-21T05:39:11;9.60;99.90
15131;DHT22;7666;50.920;4.628;2023-11-21T05:41:57;9.60;99.90
15131;DHT22;7666;50.920;4.628;2023-11-21T05:44:43;9.60;99.90
15131;DHT22;7666;50.920;4.628;2023-11-21T05:47:29;9.60;99.90
15131;DHT22;7666;50.920;4.628;2023-11-21T05:50:16;9.60;99.90
15131;DHT22;7666;50.920;4.628;2023-11-21T05:53:03;9.70;99.90
15131;DHT22;7666;50.920;4.628;2023-11-21T05:55:48;9.70;99.90
15131;DHT22;7666;50.920;4.628;2023-11-21T05:58:34;9.70;99.90
15131;DHT22;7666;50.920;4.628;2023-11-21T06:01:20;9.70;99.90
15131;DHT22;7666;50.920;4.628;2023-11-21T06:04:06;9.70;99.90
15131;DHT22;7666;50.920;4.628;2023-11-21T06:06:55;9.80;99.90
15131;DHT22;7666;50.920;4.628;2023-11-21T06:09:41;9.80;99.90
15131;DHT22;7666;50.920;4.628;2023-11-21T06:12:27;9.80;99.90
15131;DHT22;7666;50.920;4.628;2023-11-21T06:15:13;9.80;99.90
15131;DHT22;7666;50.920;4.628;2023-11-21T06:18:02;9.80;99.90
15131;DHT22;7666;50.920;4.628;2023-11-21T06:20:48;9.80;99.90
15131;DHT22;7666;50.920;4.628;2023-11-21T06:23:34;9.80;99.90
15131;DHT22;7666;50.920;4.628;2023-11-21T06:26:20;9.80;99.90
15131;DHT22;7666;50.920;4.628;2023-11-21T06:29:06;9.80;99.90
15131;DHT22;7666;50.920;4.628;2023-11-21T06:31:52;9.80;99.90
15131;DHT22;7666;50.920;4.628;2023-11-21T06:34:40;9.80;99.90
15131;DHT22;7666;50.920;4.628;2023-11-21T06:37:27;9.80;99.90
15131;DHT22;7666;50.920;4.628;2023-11-21T06:40:14;9.80;99.90
15131;DHT22;7666;50.920;4.628;2023-11-21T06:43:04;9.80;99.90
15131;DHT22;7666;50.920;4.628;2023-11-21T06:45:52;9.80;99.90
15131;DHT22;7666;50.920;4.628;2023-11-21T06:48:38;9.80;99.90
15131;DHT22;7666;50.920;4.628;2023-11-21T06:51:24;9.80;99.90
15131;DHT22;7666;50.920;4.628;2023-11-21T06:54:10;9.80;99.90
15131;DHT22;7666;50.920;4.628;2023-11-21T06:56:56;9.80;99.90
15131;DHT22;7666;50.920;4.628;2023-11-21T06:59:42;9.80;99.90
15131;DHT22;7666;50.920;4.628;2023-11-21T07:02:28;9.80;99.90
15131;DHT22;7666;50.920;4.628;2023-11-21T07:05:14;9.90;99.90
15131;DHT22;7666;50.920;4.628;2023-11-21T07:08:01;9.90;99.90
15131;DHT22;7666;50.920;4.628;2023-11-21T07:10:50;9.90;99.90
15131;DHT22;7666;50.920;4.628;2023-11-21T07:13:36;9.90;99.90
15131;DHT22;7666;50.920;4.628;2023-11-21T07:16:22;9.90;99.90
15131;DHT22;7666;50.920;4.628;2023-11-21T07:19:09;9.90;99.90
15131;DHT22;7666;50.920;4.628;2023-11-21T07:21:55;9.90;99.90
15131;DHT22;7666;50.920;4.628;2023-11-21T07:24:43;9.90;99.90
15131;DHT22;7666;50.920;4.628;2023-11-21T07:27:29;9.90;99.90
15131;DHT22;7666;50.920;4.628;2023-11-21T07:30:15;9.90;99.90
15131;DHT22;7666;50.920;4.628;2023-11-21T07:33:01;9.90;99.90
15131;DHT22;7666;50.920;4.628;2023-11-21T07:35:47;9.90;99.90
15131;DHT22;7666;50.920;4.628;2023-11-21T07:38:33;9.90;99.90
15131;DHT22;7666;50.920;4.628;2023-11-21T07:41:20;10.00;99.90
15131;DHT22;7666;50.920;4.628;2023-11-21T07:44:06;9.90;99.90
15131;DHT22;7666;50.920;4.628;2023-11-21T07:46:52;10.00;99.90
15131;DHT22;7666;50.920;4.628;2023-11-21T07:49:38;10.00;99.90
15131;DHT22;7666;50.920;4.628;2023-11-21T07:52:24;10.00;99.90
15131;DHT22;7666;50.920;4.628;2023-11-21T07:55:10;10.00;99.90
15131;DHT22;7666;50.920;4.628;2023-11-21T07:57:57;10.00;99.90
15131;DHT22;7666;50.920;4.628;2023-11-21T08:00:43;10.00;99.90
15131;DHT22;7666;50.920;4.628;2023-11-21T08:03:29;10.10;99.90
15131;DHT22;7666;50.920;4.628;2023-11-21T08:06:15;10.10;99.90
15131;DHT22;7666;50.920;4.628;2023-11-21T08:09:01;10.10;99.90
15131;DHT22;7666;50.920;4.628;2023-11-21T08:11:48;10.10;99.90
15131;DHT22;7666;50.920;4.628;2023-11-21T08:14:34;10.10;99.90
15131;DHT22;7666;50.920;4.628;2023-11-21T08:17:19;10.10;99.90
15131;DHT22;7666;50.920;4.628;2023-11-21T08:20:06;10.10;99.90
15131;DHT22;7666;50.920;4.628;2023-11-21T08:22:54;10.10;99.90
15131;DHT22;7666;50.920;4.628;2023-11-21T08:25:43;10.20;99.90
15131;DHT22;7666;50.920;4.628;2023-11-21T08:28:29;10.20;99.90
15131;DHT22;7666;50.920;4.628;2023-11-21T08:31:16;10.20;99.90
15131;DHT22;7666;50.920;4.628;2023-11-21T08:34:02;10.20;99.90
15131;DHT22;7666;50.920;4.628;2023-11-21T08:36:48;10.20;99.90
15131;DHT22;7666;50.920;4.628;2023-11-21T08:39:37;10.20;99.90
15131;DHT22;7666;50.920;4.628;2023-11-21T08:42:23;10.30;99.90
15131;DHT22;7666;50.920;4.628;2023-11-21T08:45:09;10.30;99.90
15131;DHT22;7666;50.920;4.628;2023-11-21T08:47:56;10.30;99.90
15131;DHT22;7666;50.920;4.628;2023-11-21T08:50:42;10.30;99.90
15131;DHT22;7666;50.920;4.628;2023-11-21T08:53:29;10.40;99.90
15131;DHT22;7666;50.920;4.628;2023-11-21T08:56:16;10.40;99.90
15131;DHT22;7666;50.920;4.628;2023-11-21T08:59:04;10.40;99.90
15131;DHT22;7666;50.920;4.628;2023-11-21T09:01:50;10.40;99.90
15131;DHT22;7666;50.920;4.628;2023-11-21T09:04:36;10.50;99.90
15131;DHT22;7666;50.920;4.628;2023-11-21T09:07:23;10.50;99.90
15131;DHT22;7666;50.920;4.628;2023-11-21T09:10:10;10.60;99.90
15131;DHT22;7666;50.920;4.628;2023-11-21T09:12:56;10.60;99.90
15131;DHT22;7666;50.920;4.628;2023-11-21T09:15:43;10.60;99.90
15131;DHT22;7666;50.920;4.628;2023-11-21T09:18:32;10.60;99.90
15131;DHT22;7666;50.920;4.628;2023-11-21T09:21:18;10.60;99.90
15131;DHT22;7666;50.920;4.628;2023-11-21T09:24:04;10.60;99.90
15131;DHT22;7666;50.920;4.628;2023-11-21T09:26:50;10.60;99.90
15131;DHT22;7666;50.920;4.628;2023-11-21T09:29:36;10.60;99.90
15131;DHT22;7666;50.920;4.628;2023-11-21T09:32:24;10.60;99.90
15131;DHT22;7666;50.920;4.628;2023-11-21T09:35:10;10.50;99.90
15131;DHT22;7666;50.920;4.628;2023-11-21T09:37:56;10.60;99.90
15131;DHT22;7666;50.920;4.628;2023-11-21T09:40:42;10.60;99.90
15131;DHT22;7666;50.920;4.628;2023-11-21T09:43:28;10.70;99.90
15131;DHT22;7666;50.920;4.628;2023-11-21T09:46:16;10.70;99.90
15131;DHT22;7666;50.920;4.628;2023-11-21T09:49:09;10.80;99.90
15131;DHT22;7666;50.920;4.628;2023-11-21T09:51:58;10.90;99.90
15131;DHT22;7666;50.920;4.628;2023-11-21T09:54:50;10.90;99.90
15131;DHT22;7666;50.920;4.628;2023-11-21T09:57:36;10.90;99.90
15131;DHT22;7666;50.920;4.628;2023-11-21T10:00:22;10.90;99.90
15131;DHT22;7666;50.920;4.628;2023-11-21T10:03:14;10.80;99.90
15131;DHT22;7666;50.920;4.628;2023-11-21T10:06:00;10.80;99.90
15131;DHT22;7666;50.920;4.628;2023-11-21T10:08:48;10.70;99.90
15131;DHT22;7666;50.920;4.628;2023-11-21T10:11:36;10.70;99.90
15131;DHT22;7666;50.920;4.628;2023-11-21T10:14:24;10.60;99.90
15131;DHT22;7666;50.920;4.628;2023-11-21T10:17:12;10.60;99.90
15131;DHT22;7666;50.920;4.628;2023-11-21T10:20:03;10.50;99.90
15131;DHT22;7666;50.920;4.628;2023-11-21T10:22:51;10.60;99.90
15131;DHT22;7666;50.920;4.628;2023-11-21T10:25:37;10.60;99.90
15131;DHT22;7666;50.920;4.628;2023-11-21T10:28:23;10.70;99.90
15131;DHT22;7666;50.920;4.628;2023-11-21T10:31:11;10.70;99.90
15131;DHT22;7666;50.920;4.628;2023-11-21T10:34:18;10.70;99.90
15131;DHT22;7666;50.920;4.628;2023-11-21T10:37:13;10.90;99.90
15131;DHT22;7666;50.920;4.628;2023-11-21T10:40:01;11.00;99.90
15131;DHT22;7666;50.920;4.628;2023-11-21T10:42:47;11.00;99.90
15131;DHT22;7666;50.920;4.628;2023-11-21T10:45:33;11.00;99.90
15131;DHT22;7666;50.920;4.628;2023-11-21T10:48:20;11.00;99.90
15131;DHT22;7666;50.920;4.628;2023-11-21T10:51:07;11.00;99.90
15131;DHT22;7666;50.920;4.628;2023-11-21T10:53:53;11.00;99.90
15131;DHT22;7666;50.920;4.628;2023-11-21T10:56:40;11.00;99.90
15131;DHT22;7666;50.920;4.628;2023-11-21T10:59:29;11.00;99.90
15131;DHT22;7666;50.920;4.628;2023-11-21T11:02:25;11.00;99.90
15131;DHT22;7666;50.920;4.628;2023-11-21T11:05:16;10.90;99.90
15131;DHT22;7666;50.920;4.628;2023-11-21T11:08:06;10.90;99.90
15131;DHT22;7666;50.920;4.628;2023-11-21T11:10:53;10.90;99.90
15131;DHT22;7666;50.920;4.628;2023-11-21T11:13:43;10.90;99.90
15131;DHT22;7666;50.920;4.628;2023-11-21T11:16:32;10.90;99.90
15131;DHT22;7666;50.920;4.628;2023-11-21T11:19:18;10.90;99.90
15131;DHT22;7666;50.920;4.628;2023-11-21T11:28:11;11.00;99.90
15131;DHT22;7666;50.920;4.628;2023-11-21T11:31:21;11.00;99.90
15131;DHT22;7666;50.920;4.628;2023-11-21T11:37:05;11.10;99.90
15131;DHT22;7666;50.920;4.628;2023-11-21T11:39:53;11.20;99.90
15131;DHT22;7666;50.920;4.628;2023-11-21T11:42:58;11.20;99.90
15131;DHT22;7666;50.920;4.628;2023-11-21T11:45:48;11.30;99.90
15131;DHT22;7666;50.920;4.628;2023-11-21T11:48:40;11.30;99.90
15131;DHT22;7666;50.920;4.628;2023-11-21T11:51:26;11.30;99.90
15131;DHT22;7666;50.920;4.628;2023-11-21T11:54:12;11.40;99.90
15131;DHT22;7666;50.920;4.628;2023-11-21T11:56:59;11.40;99.90
15131;DHT22;7666;50.920;4.628;2023-11-21T12:02:57;11.50;99.90
15131;DHT22;7666;50.920;4.628;2023-11-21T12:05:46;11.60;99.90
15131;DHT22;7666;50.920;4.628;2023-11-21T12:08:32;11.70;99.90
15131;DHT22;7666;50.920;4.628;2023-11-21T12:11:20;11.60;99.90
15131;DHT22;7666;50.920;4.628;2023-11-21T12:14:06;11.70;99.90
15131;DHT22;7666;50.920;4.628;2023-11-21T12:16:52;11.70;99.90
15131;DHT22;7666;50.920;4.628;2023-11-21T12:19:39;11.60;99.90
15131;DHT22;7666;50.920;4.628;2023-11-21T12:22:25;11.60;99.90
15131;DHT22;7666;50.920;4.628;2023-11-21T12:25:11;11.50;99.90
15131;DHT22;7666;50.920;4.628;2023-11-21T12:28:02;11.50;99.90
15131;DHT22;7666;50.920;4.628;2023-11-21T12:30:48;11.40;99.90
15131;DHT22;7666;50.920;4.628;2023-11-21T12:33:34;11.50;99.90
15131;DHT22;7666;50.920;4.628;2023-11-21T12:36:21;11.50;99.90
15131;DHT22;7666;50.920;4.628;2023-11-21T12:39:08;11.50;99.90
15131;DHT22;7666;50.920;4.628;2023-11-21T12:41:55;11.50;99.90
15131;DHT22;7666;50.920;4.628;2023-11-21T12:44:42;11.50;99.90
15131;DHT22;7666;50.920;4.628;2023-11-21T12:47:34;11.40;99.90
15131;DHT22;7666;50.920;4.628;2023-11-21T12:50:25;11.40;99.90
15131;DHT22;7666;50.920;4.628;2023-11-21T12:53:14;11.40;99.90
15131;DHT22;7666;50.920;4.628;2023-11-21T12:56:05;11.50;99.90
15131;DHT22;7666;50.920;4.628;2023-11-21T12:58:54;11.50;99.90
15131;DHT22;7666;50.920;4.628;2023-11-21T13:01:42;11.50;99.90
15131;DHT22;7666;50.920;4.628;2023-11-21T13:04:32;11.50;99.90
15131;DHT22;7666;50.920;4.628;2023-11-21T13:07:20;11.50;99.90
15131;DHT22;7666;50.920;4.628;2023-11-21T13:10:08;11.50;99.90
15131;DHT22;7666;50.920;4.628;2023-11-21T13:12:55;11.50;99.90
15131;DHT22;7666;50.920;4.628;2023-11-21T13:15:51;11.50;99.90
15131;DHT22;7666;50.920;4.628;2023-11-21T13:18:38;11.60;99.90
15131;DHT22;7666;50.920;4.628;2023-11-21T13:21:25;11.50;99.90
15131;DHT22;7666;50.920;4.628;2023-11-21T13:24:11;11.50;99.90
15131;DHT22;7666;50.920;4.628;2023-11-21T13:26:57;11.50;99.90
15131;DHT22;7666;50.920;4.628;2023-11-21T13:29:43;11.50;99.90
15131;DHT22;7666;50.920;4.628;2023-11-21T13:32:30;11.50;99.90
15131;DHT22;7666;50.920;4.628;2023-11-21T13:35:18;11.50;99.90
15131;DHT22;7666;50.920;4.628;2023-11-21T13:38:13;11.60;99.90
15131;DHT22;7666;50.920;4.628;2023-11-21T13:40:59;11.60;99.90
15131;DHT22;7666;50.920;4.628;2023-11-21T13:43:45;11.60;99.90
15131;DHT22;7666;50.920;4.628;2023-11-21T13:46:36;11.50;99.90
15131;DHT22;7666;50.920;4.628;2023-11-21T13:49:27;11.50;99.90
15131;DHT22;7666;50.920;4.628;2023-11-21T13:52:17;11.50;99.90
15131;DHT22;7666;50.920;4.628;2023-11-21T13:55:06;11.50;99.90
15131;DHT22;7666;50.920;4.628;2023-11-21T13:57:59;11.50;99.90
15131;DHT22;7666;50.920;4.628;2023-11-21T14:00:46;11.60;99.90
15131;DHT22;7666;50.920;4.628;2023-11-21T14:03:32;11.50;99.90
15131;DHT22;7666;50.920;4.628;2023-11-21T14:06:25;11.60;99.90
15131;DHT22;7666;50.920;4.628;2023-11-21T14:09:19;11.50;99.90
15131;DHT22;7666;50.920;4.628;2023-11-21T14:12:10;11.50;99.90
15131;DHT22;7666;50.920;4.628;2023-11-21T14:14:58;11.50;99.90
15131;DHT22;7666;50.920;4.628;2023-11-21T14:17:44;11.50;99.90
15131;DHT22;7666;50.920;4.628;2023-11-21T14:20:30;11.50;99.90
15131;DHT22;7666;50.920;4.628;2023-11-21T14:23:16;11.50;99.90
15131;DHT22;7666;50.920;4.628;2023-11-21T14:26:04;11.50;99.90
15131;DHT22;7666;50.920;4.628;2023-11-21T14:28:51;11.50;99.90
15131;DHT22;7666;50.920;4.628;2023-11-21T14:31:40;11.50;99.90
15131;DHT22;7666;50.920;4.628;2023-11-21T14:34:26;11.50;99.90
15131;DHT22;7666;50.920;4.628;2023-11-21T14:37:15;11.40;99.90
15131;DHT22;7666;50.920;4.628;2023-11-21T14:40:01;11.40;99.90
15131;DHT22;7666;50.920;4.628;2023-11-21T14:42:50;11.40;99.90
15131;DHT22;7666;50.920;4.628;2023-11-21T14:45:38;11.30;99.90
15131;DHT22;7666;50.920;4.628;2023-11-21T14:48:24;11.30;99.90
15131;DHT22;7666;50.920;4.628;2023-11-21T14:51:28;11.30;99.90
15131;DHT22;7666;50.920;4.628;2023-11-21T14:54:17;11.20;99.90
15131;DHT22;7666;50.920;4.628;2023-11-21T14:57:15;11.20;99.90
15131;DHT22;7666;50.920;4.628;2023-11-21T15:00:05;11.20;99.90
15131;DHT22;7666;50.920;4.628;2023-11-21T15:02:55;11.20;99.90
15131;DHT22;7666;50.920;4.628;2023-11-21T15:05:41;11.10;99.90
15131;DHT22;7666;50.920;4.628;2023-11-21T15:08:34;11.10;99.90
15131;DHT22;7666;50.920;4.628;2023-11-21T15:11:25;11.00;99.90
15131;DHT22;7666;50.920;4.628;2023-11-21T15:14:16;11.00;99.90
15131;DHT22;7666;50.920;4.628;2023-11-21T15:17:07;11.10;99.90
15131;DHT22;7666;50.920;4.628;2023-11-21T15:19:54;11.00;99.90
15131;DHT22;7666;50.920;4.628;2023-11-21T15:22:40;11.00;99.90
15131;DHT22;7666;50.920;4.628;2023-11-21T15:25:26;11.00;99.90
15131;DHT22;7666;50.920;4.628;2023-11-21T15:28:12;11.00;99.90
15131;DHT22;7666;50.920;4.628;2023-11-21T15:31:01;11.00;99.90
15131;DHT22;7666;50.920;4.628;2023-11-21T15:33:51;10.90;99.90
15131;DHT22;7666;50.920;4.628;2023-11-21T15:36:38;10.90;99.90
15131;DHT22;7666;50.920;4.628;2023-11-21T15:39:24;10.90;99.90
15131;DHT22;7666;50.920;4.628;2023-11-21T15:42:13;10.90;99.90
15131;DHT22;7666;50.920;4.628;2023-11-21T15:44:59;10.90;99.90
15131;DHT22;7666;50.920;4.628;2023-11-21T15:47:45;10.80;99.90
15131;DHT22;7666;50.920;4.628;2023-11-21T15:50:31;10.80;99.90
15131;DHT22;7666;50.920;4.628;2023-11-21T15:53:17;10.80;99.90
15131;DHT22;7666;50.920;4.628;2023-11-21T15:56:06;10.80;99.90
15131;DHT22;7666;50.920;4.628;2023-11-21T15:58:56;10.80;99.90
15131;DHT22;7666;50.920;4.628;2023-11-21T16:01:42;10.80;99.90
15131;DHT22;7666;50.920;4.628;2023-11-21T16:04:34;10.80;99.90
15131;DHT22;7666;50.920;4.628;2023-11-21T16:07:22;10.70;99.90
15131;DHT22;7666;50.920;4.628;2023-11-21T16:10:09;10.70;99.90
15131;DHT22;7666;50.920;4.628;2023-11-21T16:12:56;10.70;99.90
15131;DHT22;7666;50.920;4.628;2023-11-21T16:15:42;10.60;99.90
15131;DHT22;7666;50.920;4.628;2023-11-21T16:18:28;10.60;99.90
15131;DHT22;7666;50.920;4.628;2023-11-21T16:21:14;10.60;99.90
15131;DHT22;7666;50.920;4.628;2023-11-21T16:24:01;10.60;99.90
15131;DHT22;7666;50.920;4.628;2023-11-21T16:26:47;10.50;99.90
15131;DHT22;7666;50.920;4.628;2023-11-21T16:29:34;10.60;99.90
15131;DHT22;7666;50.920;4.628;2023-11-21T16:32:20;10.60;99.90
15131;DHT22;7666;50.920;4.628;2023-11-21T16:35:06;10.50;99.90
15131;DHT22;7666;50.920;4.628;2023-11-21T16:37:52;10.50;99.90
15131;DHT22;7666;50.920;4.628;2023-11-21T16:40:38;10.60;99.90
15131;DHT22;7666;50.920;4.628;2023-11-21T16:43:26;10.50;99.90
15131;DHT22;7666;50.920;4.628;2023-11-21T16:46:12;10.50;99.90
15131;DHT22;7666;50.920;4.628;2023-11-21T16:48:58;10.50;99.90
15131;DHT22;7666;50.920;4.628;2023-11-21T16:51:44;10.50;99.90
15131;DHT22;7666;50.920;4.628;2023-11-21T16:54:30;10.50;99.90
15131;DHT22;7666;50.920;4.628;2023-11-21T16:57:16;10.50;99.90
15131;DHT22;7666;50.920;4.628;2023-11-21T17:00:02;10.40;99.90
15131;DHT22;7666;50.920;4.628;2023-11-21T17:02:52;10.40;99.90
15131;DHT22;7666;50.920;4.628;2023-11-21T17:05:38;10.30;99.90
15131;DHT22;7666;50.920;4.628;2023-11-21T17:08:24;10.30;99.90
15131;DHT22;7666;50.920;4.628;2023-11-21T17:11:11;10.30;99.90
15131;DHT22;7666;50.920;4.628;2023-11-21T17:14:00;10.30;99.90
15131;DHT22;7666;50.920;4.628;2023-11-21T17:16:46;10.30;99.90
15131;DHT22;7666;50.920;4.628;2023-11-21T17:19:35;10.40;99.90
15131;DHT22;7666;50.920;4.628;2023-11-21T17:22:21;10.40;99.90
15131;DHT22;7666;50.920;4.628;2023-11-21T17:25:08;10.30;99.90
15131;DHT22;7666;50.920;4.628;2023-11-21T17:27:55;10.40;99.90
15131;DHT22;7666;50.920;4.628;2023-11-21T17:30:41;10.30;99.90
15131;DHT22;7666;50.920;4.628;2023-11-21T17:33:28;10.30;99.90
15131;DHT22;7666;50.920;4.628;2023-11-21T17:36:14;10.30;99.90
15131;DHT22;7666;50.920;4.628;2023-11-21T17:39:01;10.40;99.90
15131;DHT22;7666;50.920;4.628;2023-11-21T17:41:47;10.30;99.90
15131;DHT22;7666;50.920;4.628;2023-11-21T17:44:35;10.40;99.90
15131;DHT22;7666;50.920;4.628;2023-11-21T17:47:25;10.30;99.90
15131;DHT22;7666;50.920;4.628;2023-11-21T17:50:12;10.40;99.90
15131;DHT22;7666;50.920;4.628;2023-11-21T17:52:57;10.30;99.90
15131;DHT22;7666;50.920;4.628;2023-11-21T17:55:44;10.40;99.90
15131;DHT22;7666;50.920;4.628;2023-11-21T17:58:30;10.30;99.90
15131;DHT22;7666;50.920;4.628;2023-11-21T18:01:19;10.30;99.90
15131;DHT22;7666;50.920;4.628;2023-11-21T18:04:06;10.30;99.90
15131;DHT22;7666;50.920;4.628;2023-11-21T18:06:52;10.30;99.90
15131;DHT22;7666;50.920;4.628;2023-11-21T18:09:39;10.20;99.90
15131;DHT22;7666;50.920;4.628;2023-11-21T18:12:25;10.20;99.90